createdAt,value
2019-04-10T00:01:27.754Z,1.77
2019-04-10T00:03:56.789Z,1.90
2019-04-10T00:06:25.812Z,1.77
2019-04-10T00:08:54.735Z,1.90
2019-04-10T00:11:23.282Z,2.00
2019-04-10T00:13:51.697Z,1.63
2019-04-10T00:16:21.005Z,1.73
2019-04-10T00:18:50.467Z,1.50
2019-04-10T00:21:18.974Z,1.80
2019-04-10T00:23:47.296Z,1.83
2019-04-10T00:26:15.628Z,1.90
2019-04-10T00:28:44.021Z,1.93
2019-04-10T00:31:12.463Z,1.93
2019-04-10T00:33:41.002Z,1.63
2019-04-10T00:36:09.998Z,1.50
2019-04-10T00:38:39.910Z,1.50
2019-04-10T00:41:08.595Z,1.70
2019-04-10T00:43:37.149Z,1.67
2019-04-10T00:46:06.167Z,1.67
2019-04-10T00:48:34.594Z,2.07
2019-04-10T00:51:03.377Z,1.80
2019-04-10T00:53:32.821Z,2.03
2019-04-10T00:56:01.928Z,1.83
2019-04-10T00:58:30.520Z,2.20
2019-04-10T01:00:59.240Z,1.80
2019-04-10T01:03:43.712Z,1.90
2019-04-10T01:06:13.665Z,1.73
2019-04-10T01:08:42.795Z,1.67
2019-04-10T01:11:11.738Z,2.00
2019-04-10T01:13:41.087Z,1.93
2019-04-10T01:16:09.784Z,1.93
2019-04-10T01:18:38.098Z,1.80
2019-04-10T01:21:06.396Z,1.67
2019-04-10T01:23:35.120Z,2.00
2019-04-10T01:26:03.565Z,2.27
2019-04-10T01:28:31.890Z,1.83
2019-04-10T01:31:02.447Z,2.10
2019-04-10T01:33:31.119Z,1.80
2019-04-10T01:35:59.508Z,2.10
2019-04-10T01:38:29.282Z,1.80
2019-04-10T01:40:57.781Z,2.00
2019-04-10T01:43:26.640Z,2.10
2019-04-10T01:45:55.214Z,1.97
2019-04-10T01:48:23.826Z,2.07
2019-04-10T01:50:52.885Z,1.97
2019-04-10T01:53:21.782Z,2.13
2019-04-10T01:55:51.318Z,2.80
2019-04-10T01:58:23.117Z,2.20
2019-04-10T02:01:14.308Z,1.70
2019-04-10T02:03:42.901Z,2.10
2019-04-10T02:06:11.376Z,1.73
2019-04-10T02:08:40.314Z,2.00
2019-04-10T02:11:08.936Z,2.13
2019-04-10T02:13:37.314Z,1.90
2019-04-10T02:16:06.197Z,2.23
2019-04-10T02:18:35.214Z,2.40
2019-04-10T02:21:03.665Z,2.13
2019-04-10T02:23:31.970Z,2.17
2019-04-10T02:26:01.154Z,1.80
2019-04-10T02:28:29.814Z,1.97
2019-04-10T02:30:58.816Z,2.43
2019-04-10T02:33:27.620Z,1.90
2019-04-10T02:35:57.162Z,2.43
2019-04-10T02:38:41.514Z,2.50
2019-04-10T02:40:57.279Z,2.00
2019-04-10T02:43:27.213Z,2.90
2019-04-10T02:45:57.584Z,2.30
2019-04-10T02:48:27.564Z,2.27
2019-04-10T02:50:57.568Z,2.60
2019-04-10T02:53:27.494Z,2.10
2019-04-10T02:55:58.019Z,2.33
2019-04-10T02:58:26.509Z,2.23
2019-04-10T03:00:56.347Z,2.57
2019-04-10T03:03:25.521Z,2.97
2019-04-10T03:05:54.343Z,2.60
2019-04-10T03:08:38.228Z,3.07
2019-04-10T03:10:56.806Z,3.60
2019-04-10T03:13:23.956Z,3.43
2019-04-10T03:15:53.545Z,3.40
2019-04-10T03:18:22.987Z,3.67
2019-04-10T03:20:51.632Z,3.40
2019-04-10T03:23:20.873Z,3.90
2019-04-10T03:25:50.913Z,3.03
2019-04-10T03:28:19.798Z,3.63
2019-04-10T03:30:49.328Z,4.00
2019-04-10T03:33:47.113Z,3.73
2019-04-10T03:36:13.550Z,3.27
2019-04-10T03:38:52.736Z,3.27
2019-04-10T03:41:12.320Z,2.93
2019-04-10T03:43:41.610Z,3.80
2019-04-10T03:46:10.963Z,3.10
2019-04-10T03:48:39.486Z,2.80
2019-04-10T03:51:08.189Z,2.90
2019-04-10T03:53:36.727Z,2.70
2019-04-10T03:56:05.940Z,2.70
2019-04-10T03:58:34.271Z,3.00
2019-04-10T04:01:02.812Z,2.87
2019-04-10T04:03:31.502Z,2.77
2019-04-10T04:06:00.191Z,2.77
2019-04-10T04:08:29.770Z,2.70
2019-04-10T04:10:59.114Z,3.00
2019-04-10T04:13:27.981Z,3.00
2019-04-10T04:15:56.394Z,2.93
2019-04-10T04:18:24.917Z,3.40
2019-04-10T04:20:54.877Z,2.90
2019-04-10T04:23:23.651Z,2.80
2019-04-10T04:25:51.938Z,2.67
2019-04-10T04:28:20.237Z,2.40
2019-04-10T04:30:51.727Z,2.47
2019-04-10T04:33:19.025Z,2.90
2019-04-10T04:35:47.643Z,2.80
2019-04-10T04:38:16.379Z,3.17
2019-04-10T04:40:44.894Z,2.60
2019-04-10T04:43:13.223Z,2.90
2019-04-10T04:45:42.252Z,2.37
2019-04-10T04:48:10.868Z,2.20
2019-04-10T04:50:39.205Z,2.63
2019-04-10T04:53:08.616Z,3.63
2019-04-10T04:55:37.391Z,2.80
2019-04-10T04:58:06.224Z,2.57
2019-04-10T05:00:34.885Z,2.87
2019-04-10T05:03:03.997Z,2.67
2019-04-10T05:05:33.387Z,2.90
2019-04-10T05:08:04.118Z,3.10
2019-04-10T05:10:32.077Z,2.87
2019-04-10T05:13:00.453Z,2.90
2019-04-10T05:15:29.032Z,2.60
2019-04-10T05:17:57.685Z,2.93
2019-04-10T05:20:38.400Z,3.03
2019-04-10T05:22:55.974Z,2.77
2019-04-10T05:25:25.191Z,3.97
2019-04-10T05:27:53.770Z,3.07
2019-04-10T05:30:22.107Z,3.50
2019-04-10T05:32:51.174Z,3.50
2019-04-10T05:35:20.051Z,4.37
2019-04-10T05:37:48.482Z,4.23
2019-04-10T05:40:17.471Z,3.70
2019-04-10T05:42:47.084Z,3.37
2019-04-10T05:45:16.790Z,4.00
2019-04-10T05:47:46.556Z,3.90
2019-04-10T05:50:15.194Z,3.87
2019-04-10T05:52:43.512Z,4.07
2019-04-10T05:55:11.973Z,4.80
2019-04-10T05:57:40.648Z,4.83
2019-04-10T06:00:10.531Z,4.97
2019-04-10T06:02:39.798Z,4.40
2019-04-10T06:05:08.468Z,3.93
2019-04-10T06:07:37.127Z,4.70
2019-04-10T06:10:09.047Z,4.77
2019-04-10T06:12:36.171Z,4.57
2019-04-10T06:15:06.371Z,4.63
2019-04-10T06:17:34.883Z,5.00
2019-04-10T06:20:03.251Z,4.17
2019-04-10T06:22:31.560Z,4.53
2019-04-10T06:25:00.758Z,4.60
2019-04-10T06:27:29.302Z,4.30
2019-04-10T06:29:57.708Z,5.07
2019-04-10T06:32:26.017Z,4.10
2019-04-10T06:34:55.251Z,4.93
2019-04-10T06:37:24.182Z,4.53
2019-04-10T06:40:03.704Z,4.37
2019-04-10T06:42:22.664Z,4.57
2019-04-10T06:44:50.996Z,3.70
2019-04-10T06:47:20.266Z,4.03
2019-04-10T06:49:48.738Z,4.93
2019-04-10T06:52:17.064Z,4.53
2019-04-10T06:54:45.417Z,4.90
2019-04-10T06:57:14.629Z,4.63
2019-04-10T06:59:43.147Z,4.73
2019-04-10T07:02:22.062Z,4.50
2019-04-10T07:04:46.897Z,4.87
2019-04-10T07:07:14.426Z,4.57
2019-04-10T07:09:42.163Z,4.63
2019-04-10T07:12:10.876Z,5.13
2019-04-10T07:14:43.878Z,4.60
2019-04-10T07:17:10.588Z,4.70
2019-04-10T07:19:42.329Z,5.73
2019-04-10T07:22:12.423Z,4.97
2019-04-10T07:24:42.350Z,5.73
2019-04-10T07:27:09.816Z,5.00
2019-04-10T07:29:38.424Z,4.80
2019-04-10T07:32:09.628Z,4.93
2019-04-10T07:34:36.928Z,4.80
2019-04-10T07:37:05.761Z,5.23
2019-04-10T07:39:35.149Z,7.03
2019-04-10T07:42:04.165Z,5.47
2019-04-10T07:44:32.798Z,5.27
2019-04-10T07:47:01.198Z,6.40
2019-04-10T07:49:31.268Z,5.07
2019-04-10T07:52:00.704Z,5.47
2019-04-10T07:54:29.482Z,5.67
2019-04-10T07:56:57.986Z,5.53
2019-04-10T07:59:27.169Z,5.77
2019-04-10T08:01:56.129Z,5.50
2019-04-10T08:04:25.064Z,5.80
2019-04-10T08:06:54.328Z,5.63
2019-04-10T08:09:23.042Z,5.73
2019-04-10T08:11:51.363Z,5.93
2019-04-10T08:14:19.694Z,5.80
2019-04-10T08:16:48.046Z,6.03
2019-04-10T08:19:16.684Z,4.90
2019-04-10T08:21:46.388Z,5.57
2019-04-10T08:24:15.769Z,5.50
2019-04-10T08:26:45.154Z,5.80
2019-04-10T08:29:14.225Z,5.10
2019-04-10T08:31:42.690Z,6.50
2019-04-10T08:34:11.349Z,5.27
2019-04-10T08:36:39.827Z,5.43
2019-04-10T08:39:09.213Z,5.30
2019-04-10T08:41:37.870Z,5.33
2019-04-10T08:44:07.075Z,5.30
2019-04-10T08:46:35.824Z,5.67
2019-04-10T08:49:05.616Z,6.20
2019-04-10T08:51:35.250Z,5.57
2019-04-10T08:54:04.010Z,6.03
2019-04-10T08:56:32.356Z,5.80
2019-04-10T08:59:01.342Z,5.70
2019-04-10T09:01:31.391Z,5.17
2019-04-10T09:04:00.125Z,6.10
2019-04-10T09:06:28.762Z,5.10
2019-04-10T09:08:57.569Z,5.00
2019-04-10T09:11:29.523Z,5.80
2019-04-10T09:13:56.896Z,5.63
2019-04-10T09:16:26.660Z,5.20
2019-04-10T09:18:55.773Z,5.13
2019-04-10T09:21:24.766Z,4.83
2019-04-10T09:23:56.202Z,4.93
2019-04-10T09:26:24.507Z,5.80
2019-04-10T09:28:53.166Z,5.90
2019-04-10T09:31:21.806Z,4.70
2019-04-10T09:33:51.482Z,5.43
2019-04-10T09:36:20.132Z,6.03
2019-04-10T09:38:48.643Z,5.57
2019-04-10T09:41:17.525Z,4.73
2019-04-10T09:43:47.711Z,5.33
2019-04-10T09:46:16.761Z,4.80
2019-04-10T09:48:45.431Z,5.23
2019-04-10T09:51:16.834Z,3.93
2019-04-10T09:53:45.407Z,4.20
2019-04-10T09:56:14.837Z,4.33
2019-04-10T09:58:43.474Z,4.40
2019-04-10T10:01:15.084Z,4.43
2019-04-10T10:03:44.522Z,4.47
2019-04-10T10:06:24.267Z,4.43
2019-04-10T10:08:44.314Z,4.80
2019-04-10T10:11:13.766Z,4.20
2019-04-10T10:13:42.956Z,4.33
2019-04-10T10:16:11.625Z,4.23
2019-04-10T10:18:41.471Z,4.83
2019-04-10T10:21:10.442Z,5.13
2019-04-10T10:23:40.102Z,4.80
2019-04-10T10:26:09.912Z,4.87
2019-04-10T10:28:39.500Z,5.30
2019-04-10T10:31:08.728Z,5.50
2019-04-10T10:33:37.587Z,5.07
2019-04-10T10:36:07.479Z,5.43
2019-04-10T10:38:36.980Z,4.30
2019-04-10T10:41:06.736Z,4.97
2019-04-10T10:43:36.298Z,4.80
2019-04-10T10:46:05.083Z,4.50
2019-04-10T10:48:34.295Z,5.23
2019-04-10T10:51:04.507Z,5.50
2019-04-10T10:53:34.541Z,5.57
2019-04-10T10:56:04.299Z,5.33
2019-04-10T10:58:33.367Z,6.20
2019-04-10T11:01:03.335Z,5.77
2019-04-10T11:03:32.248Z,5.63
2019-04-10T11:06:02.421Z,5.63
2019-04-10T11:08:31.518Z,5.37
2019-04-10T11:11:00.878Z,5.63
2019-04-10T11:13:30.857Z,5.10
2019-04-10T11:16:03.875Z,5.77
2019-04-10T11:18:30.832Z,5.10
2019-04-10T11:21:04.674Z,5.73
2019-04-10T11:23:30.670Z,5.30
2019-04-10T11:25:59.841Z,5.47
2019-04-10T11:28:30.162Z,5.00
2019-04-10T11:30:59.013Z,5.30
2019-04-10T11:33:28.393Z,5.47
2019-04-10T11:35:57.651Z,5.20
2019-04-10T11:38:27.315Z,4.70
2019-04-10T11:40:59.776Z,5.00
2019-04-10T11:43:27.945Z,7.23
2019-04-10T11:46:01.449Z,4.47
2019-04-10T11:48:29.135Z,4.10
2019-04-10T11:51:00.687Z,5.73
2019-04-10T11:53:31.762Z,4.73
2019-04-10T11:56:04.416Z,4.70
2019-04-10T11:58:31.270Z,5.10
2019-04-10T12:01:02.552Z,4.57
2019-04-10T12:03:31.359Z,5.23
2019-04-10T12:06:04.270Z,4.77
2019-04-10T12:08:55.335Z,5.10
2019-04-10T12:13:30.793Z,4.40
2019-04-10T12:16:00.908Z,4.60
2019-04-10T12:18:30.745Z,4.40
2019-04-10T12:20:59.949Z,4.27
2019-04-10T12:23:29.236Z,5.17
2019-04-10T12:25:59.029Z,4.07
2019-04-10T12:28:27.961Z,4.67
2019-04-10T12:30:56.877Z,5.00
2019-04-10T12:33:25.882Z,4.80
2019-04-10T12:35:54.630Z,5.10
2019-04-10T12:38:23.650Z,4.40
2019-04-10T12:40:52.950Z,4.10
2019-04-10T12:43:21.718Z,3.60
2019-04-10T12:45:50.761Z,3.80
2019-04-10T12:48:19.402Z,4.63
2019-04-10T12:50:48.015Z,4.33
2019-04-10T12:53:16.655Z,4.73
2019-04-10T12:55:45.881Z,4.80
2019-04-10T12:58:17.549Z,4.57
2019-04-10T13:00:45.301Z,4.50
2019-04-10T13:03:14.632Z,4.20
2019-04-10T13:05:43.860Z,4.33
2019-04-10T13:08:21.129Z,4.50
2019-04-10T13:10:44.083Z,4.23
2019-04-10T13:13:13.696Z,4.50
2019-04-10T13:15:43.540Z,4.50
2019-04-10T13:18:12.485Z,4.67
2019-04-10T13:20:42.019Z,4.70
2019-04-10T13:23:10.880Z,4.60
2019-04-10T13:25:40.694Z,4.20
2019-04-10T13:28:09.801Z,4.33
2019-04-10T13:30:46.812Z,3.90
2019-04-10T13:33:09.388Z,4.07
2019-04-10T13:35:38.031Z,3.77
2019-04-10T13:38:07.234Z,3.67
2019-04-10T13:40:37.418Z,3.77
2019-04-10T13:43:06.441Z,4.20
2019-04-10T13:45:35.511Z,4.47
2019-04-10T13:48:04.221Z,4.40
2019-04-10T13:50:33.370Z,4.50
2019-04-10T13:53:03.769Z,4.37
2019-04-10T13:55:33.107Z,4.43
2019-04-10T13:58:03.248Z,4.03
2019-04-10T14:00:40.741Z,4.50
2019-04-10T14:03:10.314Z,4.57
2019-04-10T14:05:39.350Z,4.50
2019-04-10T14:08:08.438Z,4.53
2019-04-10T14:10:40.793Z,4.73
2019-04-10T14:13:07.917Z,4.23
2019-04-10T14:15:36.640Z,4.40
2019-04-10T14:18:06.182Z,3.63
2019-04-10T14:20:35.494Z,3.87
2019-04-10T14:23:12.547Z,3.17
2019-04-10T14:25:49.776Z,2.97
2019-04-10T14:28:19.623Z,3.90
2019-04-10T14:30:49.110Z,3.60
2019-04-10T14:33:19.055Z,3.57
2019-04-10T14:35:47.758Z,3.93
2019-04-10T14:38:16.995Z,4.80
2019-04-10T14:40:47.240Z,4.00
2019-04-10T14:43:16.812Z,3.57
2019-04-10T14:45:45.819Z,3.53
2019-04-10T14:48:14.683Z,2.73
2019-04-10T14:50:44.204Z,3.20
2019-04-10T14:53:13.883Z,2.70
2019-04-10T14:55:42.562Z,2.87
2019-04-10T14:58:20.587Z,2.60
2019-04-10T15:00:52.730Z,2.70
2019-04-10T15:03:22.490Z,3.13
2019-04-10T15:05:54.495Z,2.73
2019-04-10T15:08:22.074Z,2.60
2019-04-10T15:10:50.886Z,3.20
2019-04-10T15:13:22.458Z,2.97
2019-04-10T15:15:50.389Z,3.00
2019-04-10T15:18:20.385Z,3.20
2019-04-10T15:20:49.384Z,3.90
2019-04-10T15:23:18.561Z,4.57
2019-04-10T15:25:47.240Z,3.50
2019-04-10T15:28:16.103Z,3.80
2019-04-10T15:30:44.897Z,3.70
2019-04-10T15:33:14.201Z,4.17
2019-04-10T15:35:43.247Z,4.10
2019-04-10T15:38:11.795Z,4.27
2019-04-10T15:40:40.615Z,3.97
2019-04-10T15:43:10.650Z,4.00
2019-04-10T15:45:39.995Z,5.40
2019-04-10T15:48:08.695Z,3.80
2019-04-10T15:50:37.606Z,4.10
2019-04-10T15:53:07.482Z,3.73
2019-04-10T15:55:36.486Z,3.67
2019-04-10T15:58:06.694Z,3.10
2019-04-10T16:00:35.523Z,3.10
2019-04-10T16:03:04.986Z,3.20
2019-04-10T16:05:33.872Z,3.57
2019-04-10T16:08:03.289Z,3.37
2019-04-10T16:10:53.700Z,3.43
2019-04-10T16:13:44.385Z,3.50
2019-04-10T16:16:51.182Z,3.23
2019-04-10T16:19:54.345Z,3.47
2019-04-10T16:22:35.858Z,3.27
2019-04-10T16:25:08.105Z,3.93
2019-04-10T16:27:37.371Z,2.90
2019-04-10T16:30:08.241Z,3.13
2019-04-10T16:32:37.169Z,3.07
2019-04-10T16:35:07.249Z,2.80
2019-04-10T16:37:37.590Z,3.07
2019-04-10T16:40:08.309Z,2.50
2019-04-10T16:42:36.979Z,2.33
2019-04-10T16:45:06.311Z,2.40
2019-04-10T16:47:34.991Z,2.33
2019-04-10T16:50:03.991Z,2.40
2019-04-10T16:52:33.328Z,2.77
2019-04-10T16:55:02.885Z,2.97
2019-04-10T16:57:31.790Z,2.73
2019-04-10T17:00:00.919Z,2.77
2019-04-10T17:02:29.758Z,3.00
2019-04-10T17:04:58.562Z,3.03
2019-04-10T17:07:27.318Z,3.03
2019-04-10T17:10:16.658Z,2.80
2019-04-10T17:15:30.133Z,3.10
2019-04-10T17:17:59.191Z,2.77
2019-04-10T17:20:28.778Z,3.00
2019-04-10T17:22:58.383Z,2.93
2019-04-10T17:25:28.463Z,2.70
2019-04-10T17:27:57.207Z,2.73
2019-04-10T17:30:26.095Z,2.87
2019-04-10T17:32:56.417Z,2.63
2019-04-10T17:35:25.740Z,3.23
2019-04-10T17:37:54.494Z,2.73
2019-04-10T17:40:33.091Z,3.10
2019-04-10T17:42:54.755Z,3.10
2019-04-10T17:45:25.835Z,2.63
2019-04-10T17:47:55.260Z,3.17
2019-04-10T17:50:25.056Z,2.43
2019-04-10T17:52:53.783Z,2.73
2019-04-10T17:55:23.197Z,2.47
2019-04-10T17:57:54.387Z,3.30
2019-04-10T18:00:40.582Z,2.93
2019-04-10T18:03:09.387Z,3.13
2019-04-10T18:05:39.133Z,2.87
2019-04-10T18:08:08.369Z,2.77
2019-04-10T18:10:46.494Z,2.90
2019-04-10T18:13:08.502Z,2.87
2019-04-10T18:15:37.926Z,2.77
2019-04-10T18:18:07.314Z,2.97
2019-04-10T18:20:36.404Z,2.97
2019-04-10T18:23:05.027Z,2.80
2019-04-10T18:25:34.055Z,3.30
2019-04-10T18:28:03.386Z,3.07
2019-04-10T18:30:34.065Z,2.93
2019-04-10T18:33:03.780Z,2.97
2019-04-10T18:35:33.710Z,3.47
2019-04-10T18:38:03.428Z,3.50
2019-04-10T18:40:32.760Z,3.30
2019-04-10T18:43:02.229Z,3.67
2019-04-10T18:45:30.925Z,3.73
2019-04-10T18:48:00.642Z,3.00
2019-04-10T18:50:29.591Z,3.10
2019-04-10T18:52:59.345Z,2.83
2019-04-10T18:55:28.603Z,2.80
2019-04-10T18:57:57.300Z,2.73
2019-04-10T19:00:43.767Z,2.93
2019-04-10T19:03:55.000Z,2.60
2019-04-10T19:06:49.715Z,2.73
2019-04-10T19:09:25.094Z,2.50
2019-04-10T19:11:52.742Z,2.60
2019-04-10T19:14:22.564Z,2.30
2019-04-10T19:16:52.800Z,3.00
2019-04-10T19:19:21.924Z,2.50
2019-04-10T19:21:51.478Z,2.70
2019-04-10T19:24:21.937Z,2.90
2019-04-10T19:26:51.609Z,2.50
2019-04-10T19:29:21.312Z,3.00
2019-04-10T19:31:56.542Z,3.20
2019-04-10T19:34:25.418Z,2.90
2019-04-10T19:36:54.500Z,2.33
2019-04-10T19:39:24.357Z,2.63
2019-04-10T19:41:54.297Z,2.50
2019-04-10T19:44:23.615Z,2.10
2019-04-10T19:46:53.579Z,2.50
2019-04-10T19:49:23.839Z,2.67
2019-04-10T19:51:52.915Z,3.10
2019-04-10T19:54:22.095Z,3.30
2019-04-10T19:56:51.098Z,3.73
2019-04-10T19:59:20.766Z,4.03
2019-04-10T20:01:50.680Z,3.37
2019-04-10T20:04:20.702Z,3.27
2019-04-10T20:06:49.406Z,3.97
2019-04-10T20:09:18.410Z,4.10
2019-04-10T20:11:52.625Z,4.30
2019-04-10T20:14:17.548Z,5.10
2019-04-10T20:16:49.283Z,4.30
2019-04-10T20:19:18.283Z,4.93
2019-04-10T20:21:48.225Z,4.80
2019-04-10T20:24:17.198Z,4.73
2019-04-10T20:26:45.943Z,4.60
2019-04-10T20:29:15.135Z,4.90
2019-04-10T20:31:44.383Z,5.00
2019-04-10T20:34:13.659Z,4.40
2019-04-10T20:36:42.737Z,5.23
2019-04-10T20:39:12.876Z,4.80
2019-04-10T20:41:48.470Z,5.00
2019-04-10T20:44:12.490Z,4.83
2019-04-10T20:46:42.380Z,4.87
2019-04-10T20:49:12.109Z,5.20
2019-04-10T20:51:41.902Z,4.57
2019-04-10T20:54:10.782Z,5.00
2019-04-10T20:56:39.695Z,5.00
2019-04-10T20:59:08.438Z,4.87
2019-04-10T21:01:37.358Z,4.97
2019-04-10T21:04:07.250Z,4.87
2019-04-10T21:06:37.006Z,5.13
2019-04-10T21:09:07.542Z,4.73
2019-04-10T21:11:37.592Z,4.70
2019-04-10T21:14:07.217Z,4.47
2019-04-10T21:16:36.007Z,6.43
2019-04-10T21:19:05.186Z,4.70
2019-04-10T21:21:34.854Z,5.17
2019-04-10T21:24:04.876Z,5.07
2019-04-10T21:26:34.661Z,5.37
2019-04-10T21:29:06.471Z,4.73
2019-04-10T21:31:52.526Z,5.10
2019-04-10T21:34:30.366Z,5.43
2019-04-10T21:36:59.781Z,5.53
2019-04-10T21:39:29.725Z,5.50
2019-04-10T21:42:10.281Z,5.30
2019-04-10T21:44:29.298Z,4.70
2019-04-10T21:46:59.181Z,5.90
2019-04-10T21:49:28.732Z,5.27
2019-04-10T21:51:57.901Z,5.63
2019-04-10T21:54:26.995Z,5.50
2019-04-10T21:56:55.860Z,5.53
2019-04-10T21:59:25.050Z,6.30
2019-04-10T22:01:54.940Z,5.77
2019-04-10T22:04:25.090Z,6.13
2019-04-10T22:07:22.236Z,6.40
2019-04-10T22:10:09.817Z,6.30
2019-04-10T22:12:43.576Z,5.30
2019-04-10T22:15:47.509Z,6.23
2019-04-10T22:18:16.960Z,6.53
2019-04-10T22:20:46.349Z,6.03
2019-04-10T22:23:15.979Z,6.33
2019-04-10T22:25:45.864Z,6.63
2019-04-10T22:28:14.957Z,6.00
2019-04-10T22:30:44.242Z,5.63
2019-04-10T22:33:13.954Z,5.60
2019-04-10T22:35:42.703Z,6.27
2019-04-10T22:38:11.722Z,5.57
2019-04-10T22:40:40.659Z,6.13
2019-04-10T22:43:09.596Z,5.70
2019-04-10T22:45:38.523Z,5.53
2019-04-10T22:48:08.257Z,6.67
2019-04-10T22:50:37.087Z,6.30
2019-04-10T22:53:06.861Z,6.33
2019-04-10T22:55:36.011Z,6.33
2019-04-10T22:58:04.770Z,7.33
2019-04-10T23:00:33.583Z,6.93
2019-04-10T23:03:03.125Z,7.70
2019-04-10T23:05:32.343Z,8.47
2019-04-10T23:08:01.298Z,8.20
2019-04-10T23:10:29.925Z,8.90
2019-04-10T23:13:02.873Z,9.63
2019-04-10T23:15:28.990Z,8.53
2019-04-10T23:17:57.805Z,9.97
2019-04-10T23:20:26.622Z,9.53
2019-04-10T23:22:56.686Z,9.70
2019-04-10T23:25:26.560Z,9.77
2019-04-10T23:27:56.408Z,10.30
2019-04-10T23:30:26.640Z,10.30
2019-04-10T23:32:55.523Z,10.47
2019-04-10T23:35:25.339Z,10.23
2019-04-10T23:37:55.115Z,11.37
2019-04-10T23:40:25.117Z,12.43
2019-04-10T23:43:05.760Z,11.53
2019-04-10T23:45:24.583Z,12.77
2019-04-10T23:47:53.986Z,13.00
2019-04-10T23:50:23.961Z,13.57
2019-04-10T23:52:52.655Z,13.57
2019-04-10T23:55:21.872Z,14.13
2019-04-10T23:57:51.692Z,13.07
